Time,TemperatureF,DewpointF,PressureIn,WindDirection,WindDirectionDegrees,WindSpeedMPH,WindSpeedGustMPH,Humidity,HourlyPrecipIn,Conditions,Clouds,dailyrainin,SoftwareType,DateUTC
2013-08-08 00:07:00,57.7,57.1,29.82,SE,135,0.0,-999.0,98,-99.99,,,0.00,Acu-Link.com,2013-08-08 07:07:00,
2013-08-08 00:22:00,57.0,56.4,29.82,SSE,157,0.0,-999.0,98,-99.99,,,0.00,Acu-Link.com,2013-08-08 07:22:00,
2013-08-08 00:37:00,56.5,55.9,29.82,South,180,0.0,-999.0,98,-99.99,,,0.00,Acu-Link.com,2013-08-08 07:37:00,
2013-08-08 00:52:00,56.1,55.5,29.81,South,180,0.0,-999.0,98,-99.99,,,0.00,Acu-Link.com,2013-08-08 07:52:00,
2013-08-08 01:08:00,55.8,55.2,29.81,SSE,157,0.0,-999.0,98,-99.99,,,0.00,Acu-Link.com,2013-08-08 08:08:00,
2013-08-08 01:23:00,55.8,55.2,29.81,SSE,157,0.0,-999.0,98,-99.99,,,0.00,Acu-Link.com,2013-08-08 08:23:00,
2013-08-08 01:38:00,55.6,55.0,29.81,SW,225,0.0,-999.0,98,-99.99,,,0.00,Acu-Link.com,2013-08-08 08:38:00,
2013-08-08 01:53:00,55.6,55.0,29.82,SSE,157,0.0,-999.0,98,-99.99,,,0.00,Acu-Link.com,2013-08-08 08:53:00,
2013-08-08 02:08:00,55.6,55.0,29.82,ESE,112,0.0,-999.0,98,-99.99,,,0.00,Acu-Link.com,2013-08-08 09:08:00,
2013-08-08 02:23:00,55.8,55.2,29.82,SSE,157,0.0,-999.0,98,-99.99,,,0.00,Acu-Link.com,2013-08-08 09:23:00,
2013-08-08 02:39:00,55.8,55.2,29.83,SSE,157,0.0,-999.0,98,-99.99,,,0.00,Acu-Link.com,2013-08-08 09:39:00,
2013-08-08 02:54:00,55.9,55.3,29.82,SSE,157,0.0,-999.0,98,-99.99,,,0.00,Acu-Link.com,2013-08-08 09:54:00,
2013-08-08 03:09:00,55.9,55.3,29.83,South,180,0.0,-999.0,98,-99.99,,,0.00,Acu-Link.com,2013-08-08 10:09:00,
2013-08-08 03:24:00,55.9,55.3,29.82,South,180,0.0,-999.0,98,-99.99,,,0.00,Acu-Link.com,2013-08-08 10:24:00,
2013-08-08 03:39:00,55.9,55.3,29.82,South,180,0.0,-999.0,98,-99.99,,,0.00,Acu-Link.com,2013-08-08 10:39:00,
2013-08-08 03:54:00,55.9,55.3,29.83,WSW,247,0.0,-999.0,98,-99.99,,,0.00,Acu-Link.com,2013-08-08 10:54:00,
2013-08-08 04:09:00,55.9,55.3,29.83,SSE,157,0.0,-999.0,98,-99.99,,,0.00,Acu-Link.com,2013-08-08 11:09:00,
2013-08-08 04:24:00,55.9,55.3,29.83,SSE,157,0.0,-999.0,98,-99.99,,,0.00,Acu-Link.com,2013-08-08 11:24:00,
2013-08-08 04:39:00,55.8,55.2,29.83,SSE,157,0.0,-999.0,98,-99.99,,,0.00,Acu-Link.com,2013-08-08 11:39:00,
2013-08-08 04:55:00,55.8,55.2,29.82,South,180,0.0,-999.0,98,-99.99,,,0.00,Acu-Link.com,2013-08-08 11:55:00,
2013-08-08 05:10:00,55.4,54.8,29.83,SSE,157,0.0,-999.0,98,-99.99,,,0.00,Acu-Link.com,2013-08-08 12:10:00,
2013-08-08 05:25:00,55.4,54.8,29.83,SSE,157,0.0,-999.0,98,-99.99,,,0.00,Acu-Link.com,2013-08-08 12:25:00,
2013-08-08 05:40:00,55.2,54.6,29.83,SE,135,0.0,-999.0,98,-99.99,,,0.00,Acu-Link.com,2013-08-08 12:40:00,
2013-08-08 05:55:00,55.2,54.6,29.83,SSE,157,0.0,-999.0,98,-99.99,,,0.00,Acu-Link.com,2013-08-08 12:55:00,
2013-08-08 06:10:00,55.0,54.4,29.83,SSE,157,0.0,-999.0,98,-99.99,,,0.00,Acu-Link.com,2013-08-08 13:10:00,
2013-08-08 06:25:00,55.0,54.4,29.83,SSE,157,0.0,-999.0,98,-99.99,,,0.00,Acu-Link.com,2013-08-08 13:25:00,
2013-08-08 06:40:00,55.0,54.4,29.83,SSE,157,0.0,-999.0,98,-99.99,,,0.00,Acu-Link.com,2013-08-08 13:40:00,
2013-08-08 06:55:00,55.4,54.8,29.82,SSE,157,0.0,-999.0,98,-99.99,,,0.00,Acu-Link.com,2013-08-08 13:55:00,
2013-08-08 07:10:00,55.8,55.2,29.82,South,180,0.0,-999.0,98,-99.99,,,0.00,Acu-Link.com,2013-08-08 14:10:00,
2013-08-08 07:26:00,56.3,55.7,29.82,South,180,0.0,-999.0,98,-99.99,,,0.00,Acu-Link.com,2013-08-08 14:26:00,
2013-08-08 07:41:00,57.7,57.1,29.82,SE,135,0.0,-999.0,98,-99.99,,,0.00,Acu-Link.com,2013-08-08 14:41:00,
2013-08-08 07:56:00,60.6,60.0,29.81,SSE,157,1.7,-999.0,98,-99.99,,,0.00,Acu-Link.com,2013-08-08 14:56:00,
2013-08-08 08:11:00,62.8,62.2,29.82,East,90,0.0,-999.0,98,-99.99,,,0.00,Acu-Link.com,2013-08-08 15:11:00,
2013-08-08 08:26:00,64.9,64.3,29.81,ESE,112,0.0,-999.0,98,-99.99,,,0.00,Acu-Link.com,2013-08-08 15:26:00,
2013-08-08 08:41:00,68.0,66.5,29.81,ENE,67,3.2,-999.0,95,-99.99,,,0.00,Acu-Link.com,2013-08-08 15:41:00,
2013-08-08 08:56:00,69.8,66.1,29.81,WNW,292,1.7,-999.0,88,-99.99,,,0.00,Acu-Link.com,2013-08-08 15:56:00,
2013-08-08 09:11:00,71.8,64.9,29.81,SSW,202,0.0,-999.0,79,-99.99,,,0.00,Acu-Link.com,2013-08-08 16:11:00,
2013-08-08 09:26:00,72.7,65.4,29.81,SSW,202,3.2,-999.0,78,-99.99,,,0.00,Acu-Link.com,2013-08-08 16:26:00,
2013-08-08 09:42:00,72.5,65.2,29.81,SW,225,0.0,-999.0,78,-99.99,,,0.00,Acu-Link.com,2013-08-08 16:42:00,
2013-08-08 09:57:00,65.3,64.7,29.82,SW,225,2.2,-999.0,98,-99.99,,,0.00,Acu-Link.com,2013-08-08 16:57:00,
2013-08-08 10:12:00,65.1,64.5,29.81,West,270,0.0,-999.0,98,-99.99,,,0.00,Acu-Link.com,2013-08-08 17:12:00,
2013-08-08 10:27:00,67.5,66.3,29.81,SSW,202,0.0,-999.0,96,-99.99,,,0.00,Acu-Link.com,2013-08-08 17:27:00,
2013-08-08 10:42:00,67.3,66.4,29.81,WSW,247,2.2,-999.0,97,-99.99,,,0.00,Acu-Link.com,2013-08-08 17:42:00,
2013-08-08 10:57:00,68.2,65.5,29.82,SW,225,2.7,-999.0,91,-99.99,,,0.00,Acu-Link.com,2013-08-08 17:57:00,
2013-08-08 11:12:00,67.6,66.7,29.81,WNW,292,1.7,-999.0,97,-99.99,,,0.00,Acu-Link.com,2013-08-08 18:12:00,
2013-08-08 11:27:00,68.5,66.7,29.80,SSW,202,1.7,-999.0,94,-99.99,,,0.00,Acu-Link.com,2013-08-08 18:27:00,
2013-08-08 11:42:00,67.6,64.2,29.80,WSW,247,3.2,-999.0,89,-99.99,,,0.00,Acu-Link.com,2013-08-08 18:42:00,
2013-08-08 11:58:00,69.6,65.2,29.80,SW,225,3.7,-999.0,86,-99.99,,,0.00,Acu-Link.com,2013-08-08 18:58:00,
2013-08-08 12:13:00,68.5,64.5,29.80,SSW,202,2.2,-999.0,87,-99.99,,,0.00,Acu-Link.com,2013-08-08 19:13:00,
2013-08-08 12:28:00,70.0,65.9,29.80,WSW,247,1.7,-999.0,87,-99.99,,,0.00,Acu-Link.com,2013-08-08 19:28:00,
2013-08-08 12:43:00,70.9,66.2,29.79,SW,225,2.2,-999.0,85,-99.99,,,0.00,Acu-Link.com,2013-08-08 19:43:00,
2013-08-08 13:13:00,71.8,65.6,29.78,ESE,112,0.0,-999.0,81,-99.99,,,0.00,Acu-Link.com,2013-08-08 20:13:00,
2013-08-08 13:29:00,72.5,65.2,29.78,West,270,2.7,-999.0,78,-99.99,,,0.00,Acu-Link.com,2013-08-08 20:29:00,
2013-08-08 13:44:00,73.2,64.8,29.77,SW,225,1.7,-999.0,75,-99.99,,,0.00,Acu-Link.com,2013-08-08 20:44:00,
2013-08-08 13:59:00,73.9,63.5,29.76,SW,225,0.0,-999.0,70,-99.99,,,0.00,Acu-Link.com,2013-08-08 20:59:00,
2013-08-08 14:14:00,74.3,63.9,29.77,SSE,157,3.2,-999.0,70,-99.99,,,0.00,Acu-Link.com,2013-08-08 21:14:00,
2013-08-08 14:29:00,75.4,64.5,29.76,SSW,202,0.0,-999.0,69,-99.99,,,0.00,Acu-Link.com,2013-08-08 21:29:00,
2013-08-08 14:59:00,73.9,64.7,29.75,SSW,202,2.2,-999.0,73,-99.99,,,0.00,Acu-Link.com,2013-08-08 21:59:00,
2013-08-08 15:15:00,75.7,64.4,29.75,ESE,112,2.7,-999.0,68,-99.99,,,0.00,Acu-Link.com,2013-08-08 22:15:00,
2013-08-08 15:30:00,74.5,64.9,29.75,WNW,292,0.0,-999.0,72,-99.99,,,0.00,Acu-Link.com,2013-08-08 22:30:00,
2013-08-08 15:45:00,73.0,65.0,29.74,SW,225,1.7,-999.0,76,-99.99,,,0.00,Acu-Link.com,2013-08-08 22:45:00,
2013-08-08 16:00:00,72.7,64.7,29.74,SSW,202,3.7,-999.0,76,-99.99,,,0.00,Acu-Link.com,2013-08-08 23:00:00,
2013-08-08 16:15:00,76.8,65.8,29.74,NE,45,3.2,-999.0,69,-99.99,,,0.00,Acu-Link.com,2013-08-08 23:15:00,
2013-08-08 16:30:00,77.0,65.2,29.74,West,270,0.0,-999.0,67,-99.99,,,0.00,Acu-Link.com,2013-08-08 23:30:00,
2013-08-08 17:00:00,75.9,65.4,29.73,West,270,2.2,-999.0,70,-99.99,,,0.00,Acu-Link.com,2013-08-09 00:00:00,
2013-08-08 17:15:00,75.6,65.9,29.73,West,270,0.0,-999.0,72,-99.99,,,0.00,Acu-Link.com,2013-08-09 00:15:00,
2013-08-08 17:31:00,74.3,64.7,29.73,WSW,247,2.2,-999.0,72,-99.99,,,0.00,Acu-Link.com,2013-08-09 00:31:00,
2013-08-08 17:46:00,73.0,65.4,29.73,WNW,292,0.0,-999.0,77,-99.99,,,0.00,Acu-Link.com,2013-08-09 00:46:00,
2013-08-08 18:01:00,73.4,65.4,29.73,West,270,0.0,-999.0,76,-99.99,,,0.00,Acu-Link.com,2013-08-09 01:01:00,
2013-08-08 18:16:00,73.2,66.3,29.72,SW,225,0.0,-999.0,79,-99.99,,,0.00,Acu-Link.com,2013-08-09 01:16:00,
2013-08-08 18:31:00,73.0,66.5,29.72,WNW,292,0.0,-999.0,80,-99.99,,,0.00,Acu-Link.com,2013-08-09 01:31:00,
2013-08-08 18:46:00,72.3,66.1,29.72,West,270,0.0,-999.0,81,-99.99,,,0.00,Acu-Link.com,2013-08-09 01:46:00,
2013-08-08 19:01:00,72.1,66.6,29.72,West,270,0.0,-999.0,83,-99.99,,,0.00,Acu-Link.com,2013-08-09 02:01:00,
2013-08-08 19:31:00,71.6,67.5,29.71,SW,225,0.0,-999.0,87,-99.99,,,0.00,Acu-Link.com,2013-08-09 02:31:00,
2013-08-08 19:47:00,70.5,69.0,29.72,WNW,292,0.0,-999.0,95,-99.99,,,0.00,Acu-Link.com,2013-08-09 02:47:00,
2013-08-08 20:17:00,67.5,66.9,29.72,SSW,202,0.0,-999.0,98,-99.99,,,0.00,Acu-Link.com,2013-08-09 03:17:00,
2013-08-08 20:32:00,65.8,65.2,29.72,South,180,0.0,-999.0,98,-99.99,,,0.00,Acu-Link.com,2013-08-09 03:32:00,
2013-08-08 20:47:00,64.8,64.2,29.72,SW,225,0.0,-999.0,98,-99.99,,,0.00,Acu-Link.com,2013-08-09 03:47:00,
2013-08-08 21:02:00,63.7,63.1,29.73,SSW,202,0.0,-999.0,98,-99.99,,,0.00,Acu-Link.com,2013-08-09 04:02:00,
2013-08-08 21:17:00,63.0,62.4,29.73,South,180,0.0,-999.0,98,-99.99,,,0.00,Acu-Link.com,2013-08-09 04:17:00,
2013-08-08 21:32:00,62.8,62.2,29.73,SSE,157,0.0,-999.0,98,-99.99,,,0.00,Acu-Link.com,2013-08-09 04:32:00,
2013-08-08 21:47:00,62.6,62.0,29.73,South,180,0.0,-999.0,98,-99.99,,,0.00,Acu-Link.com,2013-08-09 04:47:00,
2013-08-08 22:03:00,62.4,61.8,29.73,South,180,0.0,-999.0,98,-99.99,,,0.00,Acu-Link.com,2013-08-09 05:03:00,
2013-08-08 22:18:00,62.2,61.6,29.73,ESE,112,0.0,-999.0,98,-99.99,,,0.00,Acu-Link.com,2013-08-09 05:18:00,
2013-08-08 22:33:00,62.1,61.5,29.73,SSE,157,0.0,-999.0,98,-99.99,,,0.00,Acu-Link.com,2013-08-09 05:33:00,
2013-08-08 22:48:00,61.7,61.1,29.73,SSE,157,0.0,-999.0,98,-99.99,,,0.00,Acu-Link.com,2013-08-09 05:48:00,
2013-08-08 23:03:00,61.5,60.9,29.73,SSE,157,0.0,-999.0,98,-99.99,,,0.00,Acu-Link.com,2013-08-09 06:03:00,
2013-08-08 23:18:00,61.3,60.7,29.73,SSE,157,0.0,-999.0,98,-99.99,,,0.00,Acu-Link.com,2013-08-09 06:18:00,
2013-08-08 23:33:00,61.2,60.6,29.73,SSE,157,0.0,-999.0,98,-99.99,,,0.00,Acu-Link.com,2013-08-09 06:33:00,
2013-08-08 23:48:00,60.6,60.0,29.73,South,180,0.0,-999.0,98,-99.99,,,0.00,Acu-Link.com,2013-08-09 06:48:00,